createdAt,value
2019-04-16T00:04:59.545Z,72.57
2019-04-16T00:15:06.429Z,70.90
2019-04-16T00:25:11.725Z,72.62
2019-04-16T00:35:17.184Z,74.21
2019-04-16T00:45:22.521Z,73.97
2019-04-16T00:55:27.860Z,74.89
2019-04-16T01:05:35.236Z,73.92
2019-04-16T01:15:40.262Z,71.51
2019-04-16T01:25:45.333Z,73.74
2019-04-16T01:35:52.722Z,74.65
2019-04-16T01:46:00.853Z,74.04
2019-04-16T01:56:05.231Z,72.03
2019-04-16T02:06:10.568Z,73.01
2019-04-16T02:16:15.822Z,72.07
2019-04-16T02:26:23.530Z,72.72
2019-04-16T02:36:28.306Z,73.11
2019-04-16T02:46:33.438Z,75.53
2019-04-16T02:56:58.644Z,75.91
2019-04-16T03:07:04.508Z,75.58
2019-04-16T03:17:14.365Z,73.71
2019-04-16T03:27:22.229Z,72.48
2019-04-16T03:37:26.419Z,74.60
2019-04-16T03:47:31.715Z,74.75
2019-04-16T03:57:36.954Z,76.67
2019-04-16T04:07:44.211Z,74.12
2019-04-16T04:17:49.812Z,72.66
2019-04-16T04:27:55.067Z,72.41
2019-04-16T04:38:00.881Z,70.31
2019-04-16T04:48:10.587Z,65.19
2019-04-16T04:58:14.964Z,59.84
2019-04-16T05:08:20.575Z,58.18
2019-04-16T05:18:25.990Z,54.77
2019-04-16T05:28:32.169Z,45.84
2019-04-16T05:38:37.510Z,39.10
2019-04-16T05:48:42.885Z,45.84
2019-04-16T05:58:48.163Z,34.85
2019-04-16T06:08:56.075Z,31.89
2019-04-16T06:19:01.859Z,29.04
2019-04-16T06:29:08.899Z,26.43
2019-04-16T06:39:19.021Z,29.66
2019-04-16T06:49:25.995Z,26.78
2019-04-16T06:59:36.025Z,28.23
2019-04-16T07:09:45.660Z,23.57
2019-04-16T07:19:49.945Z,25.33
2019-04-16T07:29:56.771Z,20.73
2019-04-16T07:40:10.032Z,19.58
2019-04-16T07:50:18.040Z,21.41
2019-04-16T08:00:24.282Z,18.85
2019-04-16T08:10:29.867Z,23.57
2019-04-16T08:20:35.364Z,15.82
2019-04-16T08:30:40.790Z,18.71
2019-04-16T08:40:47.429Z,23.18
2019-04-16T08:50:57.828Z,25.84
2019-04-16T09:00:59.576Z,22.67
2019-04-16T09:11:05.470Z,22.12
2019-04-16T09:21:11.703Z,22.32
2019-04-16T09:31:30.817Z,21.80
2019-04-16T09:41:38.110Z,21.54
2019-04-16T09:51:43.400Z,20.68
2019-04-16T10:01:50.325Z,21.79
2019-04-16T10:11:57.410Z,22.24
2019-04-16T10:22:02.974Z,20.87
2019-04-16T10:32:08.325Z,21.95
2019-04-16T10:42:27.483Z,21.05
2019-04-16T10:52:55.635Z,18.39
2019-04-16T11:03:07.439Z,18.41
2019-04-16T11:13:14.412Z,19.29
2019-04-16T11:23:20.071Z,18.63
2019-04-16T11:33:27.589Z,17.68
2019-04-16T11:43:33.091Z,17.76
2019-04-16T11:53:38.552Z,20.02
2019-04-16T12:03:48.209Z,19.47
2019-04-16T12:14:04.152Z,20.03
2019-04-16T12:24:12.939Z,22.03
2019-04-16T12:34:34.607Z,21.83
2019-04-16T12:44:53.828Z,20.42
2019-04-16T12:55:17.038Z,20.25
2019-04-16T13:05:39.649Z,21.44
2019-04-16T13:15:46.631Z,23.06
2019-04-16T13:25:59.477Z,22.02
2019-04-16T13:36:05.421Z,22.61
2019-04-16T13:46:10.408Z,23.18
2019-04-16T13:56:19.766Z,24.41
2019-04-16T14:06:24.762Z,24.51
2019-04-16T14:16:29.964Z,24.23
2019-04-16T14:26:35.329Z,25.59
2019-04-16T14:36:40.764Z,26.27
2019-04-16T14:46:46.299Z,24.66
2019-04-16T14:56:53.304Z,25.45
2019-04-16T15:07:19.552Z,26.33
2019-04-16T15:17:30.388Z,27.69
2019-04-16T15:27:52.744Z,29.37
2019-04-16T15:38:11.669Z,28.93
2019-04-16T15:48:19.000Z,28.90
2019-04-16T15:58:26.193Z,28.84
2019-04-16T16:08:39.038Z,29.16
2019-04-16T16:18:44.553Z,29.87
2019-04-16T16:28:50.183Z,30.44
2019-04-16T16:38:55.487Z,31.56
2019-04-16T16:49:00.975Z,32.38
2019-04-16T16:59:24.487Z,33.01
2019-04-16T17:09:31.406Z,33.56
2019-04-16T17:19:36.741Z,33.83
2019-04-16T17:29:42.142Z,34.36
2019-04-16T17:39:49.034Z,36.55
2019-04-16T17:50:03.700Z,41.30
2019-04-16T18:00:11.313Z,44.04
2019-04-16T18:10:22.635Z,47.73
2019-04-16T18:20:29.665Z,55.06
2019-04-16T18:30:39.289Z,60.84
2019-04-16T18:40:46.203Z,67.62
2019-04-16T18:50:52.468Z,75.68
2019-04-16T19:01:01.511Z,79.66
2019-04-16T19:11:07.896Z,83.91
2019-04-16T19:21:14.104Z,85.31
2019-04-16T19:31:23.096Z,85.65
2019-04-16T19:41:30.184Z,85.73
2019-04-16T19:51:37.957Z,85.20
2019-04-16T20:01:43.727Z,85.16
2019-04-16T20:11:54.826Z,85.32
2019-04-16T20:21:59.389Z,84.17
2019-04-16T20:32:05.869Z,84.13
2019-04-16T20:42:11.407Z,84.01
2019-04-16T20:52:17.921Z,84.14
2019-04-16T21:02:23.840Z,85.46
2019-04-16T21:12:29.303Z,84.43
2019-04-16T21:22:34.829Z,83.85
2019-04-16T21:32:50.724Z,83.81
2019-04-16T21:42:56.109Z,84.71
2019-04-16T21:53:01.480Z,84.95
2019-04-16T22:03:10.862Z,86.52
2019-04-16T22:13:19.486Z,85.68
2019-04-16T22:23:23.670Z,85.07
2019-04-16T22:33:29.389Z,84.92
2019-04-16T22:43:36.215Z,84.56
2019-04-16T22:53:41.818Z,84.35
2019-04-16T23:03:53.302Z,86.10
2019-04-16T23:13:57.456Z,85.28
2019-04-16T23:24:03.309Z,84.68
2019-04-16T23:34:08.686Z,84.88
2019-04-16T23:44:31.348Z,84.87
2019-04-16T23:54:40.761Z,85.30
